Bagram Air Base
OAIX : now visible

Airfield :











YOU CAN JOIN US ON...

 
LOGIN :

Register | Disclaimer

   EN    FR    IT 

 









Legend :    VFR   Marginal VFR   IFR   Intensive IFR   Very Intensive IFR
Visi :
Ceiling :
>= 8 km
>= 3000ft
5 to 8 km
1000 to 3000 ft
1500m to 5 km
500 to 1000 ft
800 to 1500m
200 to 500 ft
< 800m
< 200 ft
Symbols :   Thunderstorms  Fog  Heavy snow  Heavy precipitations  Wind > 20 kt






- Airport Elevation : 4895 ft


OAIX - Bagram Air Base

CURRENT METAR :
  • 281558Z 28005KT 8000 HZ FEW160 00/M06 A2992 RMK AO2A SLP128 T10041064 $

EXPIRED METARs :
  • 281458Z 00000KT 8000 HZ FEW160 01/M06 A2992 RMK AO2A SLP136 T00081061 52009 $
  • 281358Z 00000KT 8000 HZ FEW180 01/M06 A2991 RMK AO2A SLP128 T00091059 $

TAF TAF OAIX
Valid from the 28 at 15:00 until the 29 at 21:00 UTC


281501Z 2815/2921 25009KT 8000 HZ FEW160 QNH2992INS
BECMG 2817/2818 VRB06KT 6000 HZ SCT120 QNH2991INS
BECMG 2901/2902 VRB04KT 4000 HZ SCT100 QNH2994INS
BECMG 2905/2906 VRB04KT 5000 HZ SCT080 BKN100 QNH2993INS
BECMG 2909/2910 VRB04KT 8000 HZ SCT050 BKN080 QNH2993INS
BECMG 2917/2918 VRB04KT 6000 HZ FEW020 BKN080 QNH3007INS TX05/2910Z TNM04/2902Z



MET'MAP, your aeronautical weather chart ! - Copyright ORBIFLY December 2007 - Disclaimer

ORBIFLY MET'MAP TEAM :

Programming & Development : Alexandra Zaïnal
Concept & original design : Baudouin d'Aumeries
Assistance for programming : Marc-Olivier Méhu
Technical & hardware support : Manuel Goepfert

Contact : metmap@orbifly.com




SOURCES & CREDITS :

   NOAA       Earth
Advisory